sensor_id;sensor_type;location;lat;lon;timestamp;temperature;humidity
31809;DHT22;18379;48.208;-1.518;2024-03-07T00:03:27;7.40;99.90
31809;DHT22;18379;48.208;-1.518;2024-03-07T00:08:28;7.30;99.90
31809;DHT22;18379;48.208;-1.518;2024-03-07T00:13:30;7.20;99.90
31809;DHT22;18379;48.208;-1.518;2024-03-07T00:18:31;7.20;99.90
31809;DHT22;18379;48.208;-1.518;2024-03-07T00:23:32;7.10;99.90
31809;DHT22;18379;48.208;-1.518;2024-03-07T00:28:32;7.20;99.90
31809;DHT22;18379;48.208;-1.518;2024-03-07T00:33:39;7.00;99.90
31809;DHT22;18379;48.208;-1.518;2024-03-07T00:38:39;7.00;99.90
31809;DHT22;18379;48.208;-1.518;2024-03-07T00:43:40;7.00;99.90
31809;DHT22;18379;48.208;-1.518;2024-03-07T00:48:42;7.00;99.90
31809;DHT22;18379;48.208;-1.518;2024-03-07T00:53:43;7.00;99.90
31809;DHT22;18379;48.208;-1.518;2024-03-07T00:58:44;6.90;99.90
31809;DHT22;18379;48.208;-1.518;2024-03-07T01:03:44;6.90;99.90
31809;DHT22;18379;48.208;-1.518;2024-03-07T01:08:45;6.70;99.90
31809;DHT22;18379;48.208;-1.518;2024-03-07T01:13:46;6.60;99.90
31809;DHT22;18379;48.208;-1.518;2024-03-07T01:18:46;6.50;99.90
31809;DHT22;18379;48.208;-1.518;2024-03-07T01:23:47;6.40;99.90
31809;DHT22;18379;48.208;-1.518;2024-03-07T01:28:49;6.30;99.90
31809;DHT22;18379;48.208;-1.518;2024-03-07T01:33:50;6.20;99.90
31809;DHT22;18379;48.208;-1.518;2024-03-07T01:38:51;6.10;99.90
31809;DHT22;18379;48.208;-1.518;2024-03-07T01:43:51;6.00;99.90
31809;DHT22;18379;48.208;-1.518;2024-03-07T01:48:52;5.90;99.90
31809;DHT22;18379;48.208;-1.518;2024-03-07T01:53:54;5.80;99.90
31809;DHT22;18379;48.208;-1.518;2024-03-07T01:58:55;5.80;99.90
31809;DHT22;18379;48.208;-1.518;2024-03-07T02:03:55;5.80;99.90
31809;DHT22;18379;48.208;-1.518;2024-03-07T02:08:57;5.90;99.90
31809;DHT22;18379;48.208;-1.518;2024-03-07T02:13:57;5.80;99.90
31809;DHT22;18379;48.208;-1.518;2024-03-07T02:18:58;5.80;99.90
31809;DHT22;18379;48.208;-1.518;2024-03-07T02:24:00;5.80;99.90
31809;DHT22;18379;48.208;-1.518;2024-03-07T02:29:01;5.80;99.90
31809;DHT22;18379;48.208;-1.518;2024-03-07T02:34:01;5.80;99.90
31809;DHT22;18379;48.208;-1.518;2024-03-07T02:39:02;5.70;99.90
31809;DHT22;18379;48.208;-1.518;2024-03-07T02:44:03;5.60;99.90
31809;DHT22;18379;48.208;-1.518;2024-03-07T02:49:04;5.70;99.90
31809;DHT22;18379;48.208;-1.518;2024-03-07T02:54:04;5.70;99.90
31809;DHT22;18379;48.208;-1.518;2024-03-07T02:59:06;5.70;99.90
31809;DHT22;18379;48.208;-1.518;2024-03-07T03:04:09;5.60;99.90
31809;DHT22;18379;48.208;-1.518;2024-03-07T03:09:09;5.60;99.90
31809;DHT22;18379;48.208;-1.518;2024-03-07T03:14:17;5.50;99.90
31809;DHT22;18379;48.208;-1.518;2024-03-07T03:19:18;5.40;99.90
31809;DHT22;18379;48.208;-1.518;2024-03-07T03:24:18;5.40;99.90
31809;DHT22;18379;48.208;-1.518;2024-03-07T03:29:19;5.40;99.90
31809;DHT22;18379;48.208;-1.518;2024-03-07T03:34:20;5.40;99.90
31809;DHT22;18379;48.208;-1.518;2024-03-07T03:39:21;5.40;99.90
31809;DHT22;18379;48.208;-1.518;2024-03-07T03:44:22;5.40;99.90
31809;DHT22;18379;48.208;-1.518;2024-03-07T03:49:22;5.40;99.90
31809;DHT22;18379;48.208;-1.518;2024-03-07T03:54:23;5.30;99.90
31809;DHT22;18379;48.208;-1.518;2024-03-07T03:59:23;5.30;99.90
31809;DHT22;18379;48.208;-1.518;2024-03-07T04:04:24;5.20;99.90
31809;DHT22;18379;48.208;-1.518;2024-03-07T04:09:26;5.30;99.90
31809;DHT22;18379;48.208;-1.518;2024-03-07T04:14:27;5.30;99.90
31809;DHT22;18379;48.208;-1.518;2024-03-07T04:19:28;5.20;99.90
31809;DHT22;18379;48.208;-1.518;2024-03-07T04:24:36;5.30;99.90
31809;DHT22;18379;48.208;-1.518;2024-03-07T04:29:38;5.20;99.90
31809;DHT22;18379;48.208;-1.518;2024-03-07T04:34:38;5.20;99.90
31809;DHT22;18379;48.208;-1.518;2024-03-07T04:39:39;5.20;99.90
31809;DHT22;18379;48.208;-1.518;2024-03-07T04:44:40;5.30;99.90
31809;DHT22;18379;48.208;-1.518;2024-03-07T04:49:41;5.20;99.90
31809;DHT22;18379;48.208;-1.518;2024-03-07T04:54:44;5.20;99.90
31809;DHT22;18379;48.208;-1.518;2024-03-07T04:59:44;5.30;99.90
31809;DHT22;18379;48.208;-1.518;2024-03-07T05:04:45;5.30;99.90
31809;DHT22;18379;48.208;-1.518;2024-03-07T05:09:47;5.30;99.90
31809;DHT22;18379;48.208;-1.518;2024-03-07T05:14:48;5.30;99.90
31809;DHT22;18379;48.208;-1.518;2024-03-07T05:19:49;5.30;99.90
31809;DHT22;18379;48.208;-1.518;2024-03-07T05:24:50;5.30;99.90
31809;DHT22;18379;48.208;-1.518;2024-03-07T05:29:51;5.30;99.90
31809;DHT22;18379;48.208;-1.518;2024-03-07T05:34:52;5.30;99.90
31809;DHT22;18379;48.208;-1.518;2024-03-07T05:39:56;5.20;99.90
31809;DHT22;18379;48.208;-1.518;2024-03-07T05:44:56;5.20;99.90
31809;DHT22;18379;48.208;-1.518;2024-03-07T05:49:57;5.20;99.90
31809;DHT22;18379;48.208;-1.518;2024-03-07T05:54:58;5.20;99.90
31809;DHT22;18379;48.208;-1.518;2024-03-07T05:59:58;5.20;99.90
31809;DHT22;18379;48.208;-1.518;2024-03-07T06:04:59;5.20;99.90
31809;DHT22;18379;48.208;-1.518;2024-03-07T06:10:00;5.10;99.90
31809;DHT22;18379;48.208;-1.518;2024-03-07T06:15:00;5.10;99.90
31809;DHT22;18379;48.208;-1.518;2024-03-07T06:20:01;5.10;99.90
31809;DHT22;18379;48.208;-1.518;2024-03-07T06:25:01;5.10;99.90
31809;DHT22;18379;48.208;-1.518;2024-03-07T06:30:07;5.10;99.90
31809;DHT22;18379;48.208;-1.518;2024-03-07T06:35:09;5.00;99.90
31809;DHT22;18379;48.208;-1.518;2024-03-07T06:40:10;5.10;99.90
31809;DHT22;18379;48.208;-1.518;2024-03-07T06:45:11;5.00;99.90
31809;DHT22;18379;48.208;-1.518;2024-03-07T06:50:13;5.10;99.90
31809;DHT22;18379;48.208;-1.518;2024-03-07T06:55:19;5.10;99.90
31809;DHT22;18379;48.208;-1.518;2024-03-07T07:00:20;5.10;99.90
31809;DHT22;18379;48.208;-1.518;2024-03-07T07:05:21;5.10;99.90
31809;DHT22;18379;48.208;-1.518;2024-03-07T07:10:23;5.10;99.90
31809;DHT22;18379;48.208;-1.518;2024-03-07T07:15:25;5.20;99.90
31809;DHT22;18379;48.208;-1.518;2024-03-07T07:20:25;5.30;99.90
31809;DHT22;18379;48.208;-1.518;2024-03-07T07:25:26;5.30;99.90
31809;DHT22;18379;48.208;-1.518;2024-03-07T07:30:27;5.40;99.90
31809;DHT22;18379;48.208;-1.518;2024-03-07T07:35:28;5.50;99.90
31809;DHT22;18379;48.208;-1.518;2024-03-07T07:40:28;5.60;99.90
31809;DHT22;18379;48.208;-1.518;2024-03-07T07:45:31;5.70;99.90
31809;DHT22;18379;48.208;-1.518;2024-03-07T07:50:33;5.70;99.90
31809;DHT22;18379;48.208;-1.518;2024-03-07T07:55:35;5.80;99.90
31809;DHT22;18379;48.208;-1.518;2024-03-07T08:00:35;5.90;99.90
31809;DHT22;18379;48.208;-1.518;2024-03-07T08:05:37;6.00;99.90
31809;DHT22;18379;48.208;-1.518;2024-03-07T08:10:39;6.10;99.90
31809;DHT22;18379;48.208;-1.518;2024-03-07T08:15:41;6.20;99.90
31809;DHT22;18379;48.208;-1.518;2024-03-07T08:20:42;6.30;99.90
31809;DHT22;18379;48.208;-1.518;2024-03-07T08:25:43;6.40;99.90
31809;DHT22;18379;48.208;-1.518;2024-03-07T08:30:44;6.60;99.90
31809;DHT22;18379;48.208;-1.518;2024-03-07T08:35:45;6.60;99.90
31809;DHT22;18379;48.208;-1.518;2024-03-07T08:40:45;6.70;99.90
31809;DHT22;18379;48.208;-1.518;2024-03-07T08:45:46;6.80;99.90
31809;DHT22;18379;48.208;-1.518;2024-03-07T08:50:46;6.90;99.90
31809;DHT22;18379;48.208;-1.518;2024-03-07T08:55:48;7.20;99.90
31809;DHT22;18379;48.208;-1.518;2024-03-07T09:00:49;7.40;99.90
31809;DHT22;18379;48.208;-1.518;2024-03-07T09:05:52;7.40;99.90
31809;DHT22;18379;48.208;-1.518;2024-03-07T09:10:53;7.50;99.90
31809;DHT22;18379;48.208;-1.518;2024-03-07T09:15:55;7.70;99.90
31809;DHT22;18379;48.208;-1.518;2024-03-07T09:20:56;7.80;99.90
31809;DHT22;18379;48.208;-1.518;2024-03-07T09:25:57;7.80;99.90
31809;DHT22;18379;48.208;-1.518;2024-03-07T09:30:59;7.90;99.90
31809;DHT22;18379;48.208;-1.518;2024-03-07T09:35:59;7.90;99.90
31809;DHT22;18379;48.208;-1.518;2024-03-07T09:41:00;8.30;99.90
31809;DHT22;18379;48.208;-1.518;2024-03-07T09:46:03;8.70;99.90
31809;DHT22;18379;48.208;-1.518;2024-03-07T09:51:05;9.00;99.90
31809;DHT22;18379;48.208;-1.518;2024-03-07T09:56:08;9.20;99.90
31809;DHT22;18379;48.208;-1.518;2024-03-07T10:01:11;9.50;99.90
31809;DHT22;18379;48.208;-1.518;2024-03-07T10:06:12;9.80;99.90
31809;DHT22;18379;48.208;-1.518;2024-03-07T10:11:13;9.90;99.90
31809;DHT22;18379;48.208;-1.518;2024-03-07T10:16:16;9.60;99.90
31809;DHT22;18379;48.208;-1.518;2024-03-07T10:21:21;9.80;99.90
31809;DHT22;18379;48.208;-1.518;2024-03-07T10:26:22;10.40;99.90
31809;DHT22;18379;48.208;-1.518;2024-03-07T10:31:31;10.50;99.90
31809;DHT22;18379;48.208;-1.518;2024-03-07T10:36:32;10.80;99.90
31809;DHT22;18379;48.208;-1.518;2024-03-07T10:41:35;11.00;99.90
31809;DHT22;18379;48.208;-1.518;2024-03-07T10:46:37;11.40;99.90
31809;DHT22;18379;48.208;-1.518;2024-03-07T10:51:45;11.50;99.90
31809;DHT22;18379;48.208;-1.518;2024-03-07T11:01:57;11.40;99.90
31809;DHT22;18379;48.208;-1.518;2024-03-07T11:07:00;11.30;99.90
31809;DHT22;18379;48.208;-1.518;2024-03-07T11:12:01;11.60;99.90
31809;DHT22;18379;48.208;-1.518;2024-03-07T11:17:07;11.40;99.90
31809;DHT22;18379;48.208;-1.518;2024-03-07T11:22:09;11.30;99.90
31809;DHT22;18379;48.208;-1.518;2024-03-07T11:27:19;11.30;99.90
31809;DHT22;18379;48.208;-1.518;2024-03-07T11:32:20;11.70;99.90
31809;DHT22;18379;48.208;-1.518;2024-03-07T11:37:40;12.20;99.90
31809;DHT22;18379;48.208;-1.518;2024-03-07T11:42:49;12.70;99.90
31809;DHT22;18379;48.208;-1.518;2024-03-07T11:47:54;12.70;99.90
31809;DHT22;18379;48.208;-1.518;2024-03-07T11:53:01;12.80;99.90
31809;DHT22;18379;48.208;-1.518;2024-03-07T11:58:01;12.80;99.90
31809;DHT22;18379;48.208;-1.518;2024-03-07T12:03:03;13.20;99.90
31809;DHT22;18379;48.208;-1.518;2024-03-07T12:08:06;13.50;99.90
31809;DHT22;18379;48.208;-1.518;2024-03-07T12:13:07;13.60;99.90
31809;DHT22;18379;48.208;-1.518;2024-03-07T12:18:11;13.50;99.90
31809;DHT22;18379;48.208;-1.518;2024-03-07T12:23:17;13.70;99.90
31809;DHT22;18379;48.208;-1.518;2024-03-07T12:28:21;13.80;99.90
31809;DHT22;18379;48.208;-1.518;2024-03-07T12:33:24;14.10;99.90
31809;DHT22;18379;48.208;-1.518;2024-03-07T12:38:29;14.00;99.90
31809;DHT22;18379;48.208;-1.518;2024-03-07T12:43:35;14.00;99.90
31809;DHT22;18379;48.208;-1.518;2024-03-07T12:48:36;14.00;99.90
31809;DHT22;18379;48.208;-1.518;2024-03-07T12:53:39;14.20;99.90
31809;DHT22;18379;48.208;-1.518;2024-03-07T12:58:39;14.10;99.90
31809;DHT22;18379;48.208;-1.518;2024-03-07T13:03:40;14.20;99.90
31809;DHT22;18379;48.208;-1.518;2024-03-07T13:08:43;14.30;99.90
31809;DHT22;18379;48.208;-1.518;2024-03-07T13:13:44;14.50;99.90
31809;DHT22;18379;48.208;-1.518;2024-03-07T13:18:44;14.80;99.90
31809;DHT22;18379;48.208;-1.518;2024-03-07T13:23:46;14.80;99.90
31809;DHT22;18379;48.208;-1.518;2024-03-07T13:28:47;14.50;99.90
31809;DHT22;18379;48.208;-1.518;2024-03-07T13:33:48;15.00;99.90
31809;DHT22;18379;48.208;-1.518;2024-03-07T13:38:54;15.20;99.90
31809;DHT22;18379;48.208;-1.518;2024-03-07T13:43:56;14.90;99.90
31809;DHT22;18379;48.208;-1.518;2024-03-07T13:48:57;15.00;99.90
31809;DHT22;18379;48.208;-1.518;2024-03-07T13:54:07;14.60;99.90
31809;DHT22;18379;48.208;-1.518;2024-03-07T14:00:05;14.10;99.90
31809;DHT22;18379;48.208;-1.518;2024-03-07T14:22:01;14.20;99.90
31809;DHT22;18379;48.208;-1.518;2024-03-07T14:32:27;14.50;99.90
31809;DHT22;18379;48.208;-1.518;2024-03-07T14:37:38;14.30;99.90
31809;DHT22;18379;48.208;-1.518;2024-03-07T14:42:49;14.00;99.90
31809;DHT22;18379;48.208;-1.518;2024-03-07T14:47:51;13.80;99.90
31809;DHT22;18379;48.208;-1.518;2024-03-07T14:52:54;14.30;99.90
31809;DHT22;18379;48.208;-1.518;2024-03-07T14:57:55;15.00;99.90
31809;DHT22;18379;48.208;-1.518;2024-03-07T15:02:56;15.30;99.90
31809;DHT22;18379;48.208;-1.518;2024-03-07T15:08:00;15.20;99.90
31809;DHT22;18379;48.208;-1.518;2024-03-07T15:13:01;15.00;99.90
31809;DHT22;18379;48.208;-1.518;2024-03-07T15:18:03;14.90;99.90
31809;DHT22;18379;48.208;-1.518;2024-03-07T15:23:04;14.60;99.90
31809;DHT22;18379;48.208;-1.518;2024-03-07T15:28:06;14.50;99.90
31809;DHT22;18379;48.208;-1.518;2024-03-07T15:33:08;14.70;99.90
31809;DHT22;18379;48.208;-1.518;2024-03-07T15:38:09;15.30;99.90
31809;DHT22;18379;48.208;-1.518;2024-03-07T15:43:11;15.70;99.90
31809;DHT22;18379;48.208;-1.518;2024-03-07T15:48:13;15.30;99.90
31809;DHT22;18379;48.208;-1.518;2024-03-07T15:53:14;15.20;99.90
31809;DHT22;18379;48.208;-1.518;2024-03-07T15:58:15;15.20;99.90
31809;DHT22;18379;48.208;-1.518;2024-03-07T16:03:17;15.10;99.90
31809;DHT22;18379;48.208;-1.518;2024-03-07T16:08:18;14.80;99.90
31809;DHT22;18379;48.208;-1.518;2024-03-07T16:13:19;14.40;99.90
31809;DHT22;18379;48.208;-1.518;2024-03-07T16:18:20;14.20;99.90
31809;DHT22;18379;48.208;-1.518;2024-03-07T16:23:24;14.50;99.90
31809;DHT22;18379;48.208;-1.518;2024-03-07T16:28:24;15.00;99.90
31809;DHT22;18379;48.208;-1.518;2024-03-07T16:33:28;15.20;99.90
31809;DHT22;18379;48.208;-1.518;2024-03-07T16:38:29;15.30;99.90
31809;DHT22;18379;48.208;-1.518;2024-03-07T16:43:33;15.70;99.90
31809;DHT22;18379;48.208;-1.518;2024-03-07T16:48:37;15.90;99.90
31809;DHT22;18379;48.208;-1.518;2024-03-07T16:53:38;15.80;99.90
31809;DHT22;18379;48.208;-1.518;2024-03-07T16:58:40;15.90;99.90
31809;DHT22;18379;48.208;-1.518;2024-03-07T17:03:41;15.50;99.90
31809;DHT22;18379;48.208;-1.518;2024-03-07T17:08:42;14.80;99.90
31809;DHT22;18379;48.208;-1.518;2024-03-07T17:13:42;15.10;99.90
31809;DHT22;18379;48.208;-1.518;2024-03-07T17:18:43;14.40;99.90
31809;DHT22;18379;48.208;-1.518;2024-03-07T17:23:44;13.80;99.90
31809;DHT22;18379;48.208;-1.518;2024-03-07T17:28:46;13.70;99.90
31809;DHT22;18379;48.208;-1.518;2024-03-07T17:33:49;13.40;99.90
31809;DHT22;18379;48.208;-1.518;2024-03-07T17:38:51;13.20;99.90
31809;DHT22;18379;48.208;-1.518;2024-03-07T17:43:52;13.10;99.90
31809;DHT22;18379;48.208;-1.518;2024-03-07T17:48:52;13.10;99.90
31809;DHT22;18379;48.208;-1.518;2024-03-07T17:53:53;12.90;99.90
31809;DHT22;18379;48.208;-1.518;2024-03-07T17:58:56;12.80;99.90
31809;DHT22;18379;48.208;-1.518;2024-03-07T18:03:57;12.70;99.90
31809;DHT22;18379;48.208;-1.518;2024-03-07T18:08:58;12.60;99.90
31809;DHT22;18379;48.208;-1.518;2024-03-07T18:13:59;12.50;99.90
31809;DHT22;18379;48.208;-1.518;2024-03-07T18:18:59;12.40;99.90
31809;DHT22;18379;48.208;-1.518;2024-03-07T18:24:00;12.30;99.90
31809;DHT22;18379;48.208;-1.518;2024-03-07T18:29:01;12.10;99.90
31809;DHT22;18379;48.208;-1.518;2024-03-07T18:34:03;12.00;99.90
31809;DHT22;18379;48.208;-1.518;2024-03-07T18:39:06;12.00;99.90
31809;DHT22;18379;48.208;-1.518;2024-03-07T18:44:15;11.90;99.90
31809;DHT22;18379;48.208;-1.518;2024-03-07T18:49:16;11.80;99.90
31809;DHT22;18379;48.208;-1.518;2024-03-07T18:54:20;11.70;99.90
31809;DHT22;18379;48.208;-1.518;2024-03-07T18:59:24;11.70;99.90
31809;DHT22;18379;48.208;-1.518;2024-03-07T19:04:25;11.60;99.90
31809;DHT22;18379;48.208;-1.518;2024-03-07T19:09:27;11.60;99.90
31809;DHT22;18379;48.208;-1.518;2024-03-07T19:14:31;11.50;99.90
31809;DHT22;18379;48.208;-1.518;2024-03-07T19:19:32;11.50;99.90
31809;DHT22;18379;48.208;-1.518;2024-03-07T19:24:33;11.40;99.90
31809;DHT22;18379;48.208;-1.518;2024-03-07T19:29:33;11.20;99.90
31809;DHT22;18379;48.208;-1.518;2024-03-07T19:34:34;11.20;99.90
31809;DHT22;18379;48.208;-1.518;2024-03-07T19:39:34;11.10;99.90
31809;DHT22;18379;48.208;-1.518;2024-03-07T19:44:39;11.00;99.90
31809;DHT22;18379;48.208;-1.518;2024-03-07T19:49:40;10.90;99.90
31809;DHT22;18379;48.208;-1.518;2024-03-07T19:54:41;10.80;99.90
31809;DHT22;18379;48.208;-1.518;2024-03-07T19:59:42;10.80;99.90
31809;DHT22;18379;48.208;-1.518;2024-03-07T20:04:43;10.70;99.90
31809;DHT22;18379;48.208;-1.518;2024-03-07T20:09:45;10.70;99.90
31809;DHT22;18379;48.208;-1.518;2024-03-07T20:14:47;10.70;99.90
31809;DHT22;18379;48.208;-1.518;2024-03-07T20:19:49;10.70;99.90
31809;DHT22;18379;48.208;-1.518;2024-03-07T20:24:49;10.70;99.90
31809;DHT22;18379;48.208;-1.518;2024-03-07T20:29:52;10.60;99.90
31809;DHT22;18379;48.208;-1.518;2024-03-07T20:34:53;10.60;99.90
31809;DHT22;18379;48.208;-1.518;2024-03-07T20:39:53;10.50;99.90
31809;DHT22;18379;48.208;-1.518;2024-03-07T20:44:54;10.40;99.90
31809;DHT22;18379;48.208;-1.518;2024-03-07T20:49:55;10.50;99.90
31809;DHT22;18379;48.208;-1.518;2024-03-07T20:54:57;10.40;99.90
31809;DHT22;18379;48.208;-1.518;2024-03-07T21:00:05;10.30;99.90
31809;DHT22;18379;48.208;-1.518;2024-03-07T21:05:07;10.30;99.90
31809;DHT22;18379;48.208;-1.518;2024-03-07T21:10:11;10.30;99.90
31809;DHT22;18379;48.208;-1.518;2024-03-07T21:15:16;10.20;99.90
31809;DHT22;18379;48.208;-1.518;2024-03-07T21:20:19;10.20;99.90
31809;DHT22;18379;48.208;-1.518;2024-03-07T21:25:19;10.10;99.90
31809;DHT22;18379;48.208;-1.518;2024-03-07T21:30:20;10.00;99.90
31809;DHT22;18379;48.208;-1.518;2024-03-07T21:35:21;10.00;99.90
31809;DHT22;18379;48.208;-1.518;2024-03-07T21:40:22;10.00;99.90
31809;DHT22;18379;48.208;-1.518;2024-03-07T21:45:23;9.90;99.90
31809;DHT22;18379;48.208;-1.518;2024-03-07T21:50:26;9.80;99.90
31809;DHT22;18379;48.208;-1.518;2024-03-07T21:55:29;9.80;99.90
31809;DHT22;18379;48.208;-1.518;2024-03-07T22:00:30;9.70;99.90
31809;DHT22;18379;48.208;-1.518;2024-03-07T22:05:31;9.70;99.90
31809;DHT22;18379;48.208;-1.518;2024-03-07T22:10:33;9.70;99.90
31809;DHT22;18379;48.208;-1.518;2024-03-07T22:15:35;9.60;99.90
31809;DHT22;18379;48.208;-1.518;2024-03-07T22:20:36;9.60;99.90
31809;DHT22;18379;48.208;-1.518;2024-03-07T22:25:37;9.50;99.90
31809;DHT22;18379;48.208;-1.518;2024-03-07T22:30:38;9.50;99.90
31809;DHT22;18379;48.208;-1.518;2024-03-07T22:35:40;9.50;99.90
31809;DHT22;18379;48.208;-1.518;2024-03-07T22:40:41;9.50;99.90
31809;DHT22;18379;48.208;-1.518;2024-03-07T22:45:42;9.50;99.90
31809;DHT22;18379;48.208;-1.518;2024-03-07T22:50:42;9.50;99.90
31809;DHT22;18379;48.208;-1.518;2024-03-07T22:55:43;9.40;99.90
31809;DHT22;18379;48.208;-1.518;2024-03-07T23:00:44;9.40;99.90
31809;DHT22;18379;48.208;-1.518;2024-03-07T23:05:45;9.30;99.90
31809;DHT22;18379;48.208;-1.518;2024-03-07T23:10:46;9.30;99.90
31809;DHT22;18379;48.208;-1.518;2024-03-07T23:15:47;9.20;99.90
31809;DHT22;18379;48.208;-1.518;2024-03-07T23:20:48;9.10;99.90
31809;DHT22;18379;48.208;-1.518;2024-03-07T23:25:49;9.10;99.90
31809;DHT22;18379;48.208;-1.518;2024-03-07T23:30:50;9.10;99.90
31809;DHT22;18379;48.208;-1.518;2024-03-07T23:35:51;9.10;99.90
31809;DHT22;18379;48.208;-1.518;2024-03-07T23:40:51;9.00;99.90
31809;DHT22;18379;48.208;-1.518;2024-03-07T23:45:53;8.90;99.90
31809;DHT22;18379;48.208;-1.518;2024-03-07T23:50:53;8.80;99.90
31809;DHT22;18379;48.208;-1.518;2024-03-07T23:55:54;8.80;99.90
